Aviation Digital Data Service (ADDS)

Output produced by METARs form (0527 UTC 21 January 2019)
found at http://www.aviationweather.gov/metar/data/
 
Forecast for: OEKM (KHAMIS MUSHAIT A, SA)
Text: TAF OEKM 210500Z 2106/2115 20010G20KT 9999 FWE020
Forecast period: 0600 to 1500 UTC 21 January 2019
Forecast type: FROM: standard forecast or significant change
Winds: from the SSW (200 degrees) at 12 MPH (10 knots; 5.1 m/s)
gusting to 23 MPH (20 knots; 10.3 m/s)
Visibility: 6 or more miles 10+ km)
Ceiling: unknown
Clouds: missing
Weather: no significant weather forecast for this period